Terminal Aerodrome Forecast
Issued by NWS Upton, NY

Home | Current Version | Previous Version | Text Only | Print | Product List | Glossary On
Versions: 1 2 3 4 5 6 7 8 9 10 11 12 13 14 15 16 17 18 19 20 21 22 23 24 25 26 27 28 29 30 31 32 33 34 35
377
FTUS41 KOKX 211743
TAFEWR
TAF
KEWR 211743Z 2118/2224 24014G20KT P6SM SCT035 BKN250
     FM212100 23008KT P6SM SCT035 BKN100
      TEMPO 2121/2201 BKN025
     FM220200 34012KT P6SM VCSH BKN030
     FM220600 36007KT P6SM BKN040
     FM221500 03010KT P6SM VCSH BKN030
     FM221800 04010KT 3SM -RA OVC015=

USA.gov is the U.S. government's official web portal to all federal, state and local government web resources and services.